Time;durP1;ratioP1;P1;durP2;ratioP2;P2;SDS_P1;SDS_P2;PMS_P1;PMS_P2;Temp;Humidity;BMP_temperature;BMP_pressure;BME280_temperature;BME280_humidity;BME280_pressure;Samples;Min_cycle;Max_cycle;Signal;HPM_P1;HPM_P2
2021/03/15 00:01:23;;;;;;;7.32;3.10;;;5.70;99.90;;;4.17;83.54;100733.28;4930989;28;104877;-41
2021/03/15 00:03:50;;;;;;;5.57;2.58;;;5.80;99.90;;;4.17;83.59;100731.41;4930880;28;102737;-41
2021/03/15 00:06:18;;;;;;;8.75;2.90;;;5.80;99.90;;;4.05;83.90;100713.03;4931424;28;103322;-41
2021/03/15 00:08:46;;;;;;;8.00;2.55;;;5.80;99.90;;;4.19;84.12;100728.56;4930225;28;103298;-41
2021/03/15 00:11:13;;;;;;;7.70;2.90;;;5.80;99.90;;;4.22;84.04;100719.25;4930893;28;102615;-41
2021/03/15 00:13:41;;;;;;;5.10;2.78;;;5.80;99.90;;;4.18;85.22;100721.47;4913935;28;103392;-41
2021/03/15 00:16:08;;;;;;;7.95;3.35;;;5.80;99.90;;;4.26;84.93;100724.13;4931109;28;102598;-41
2021/03/15 00:18:36;;;;;;;7.40;2.97;;;5.90;99.90;;;4.27;84.88;100717.72;4930591;28;102449;-41
2021/03/15 00:21:03;;;;;;;6.13;2.58;;;5.90;99.90;;;4.28;85.37;100714.00;4898683;28;102727;-40
2021/03/15 00:23:31;;;;;;;7.20;2.75;;;5.90;99.90;;;4.26;85.28;100716.03;4929994;28;103137;-40
2021/03/15 00:25:58;;;;;;;6.80;2.77;;;5.90;99.90;;;4.24;86.17;100709.09;4930657;28;102442;-41
2021/03/15 00:28:25;;;;;;;6.68;2.67;;;5.90;99.90;;;4.26;86.21;100705.22;4914607;28;102398;-41
2021/03/15 00:30:53;;;;;;;7.00;3.13;;;5.90;99.90;;;4.24;86.36;100701.84;4930451;28;102359;-41
2021/03/15 00:33:23;;;;;;;;;;;5.90;99.90;;;4.20;86.87;100696.97;4946684;28;104763;-40
2021/03/15 00:35:51;;;;;;;;;;;5.80;99.90;;;4.26;87.13;100690.91;4931687;28;102516;-41
2021/03/15 00:38:19;;;;;;;4.88;2.13;;;5.90;99.90;;;4.21;87.55;100687.84;4946298;28;102361;-40
2021/03/15 00:40:47;;;;;;;6.43;2.25;;;5.80;99.90;;;4.15;87.91;100679.44;4930099;28;103579;-41
2021/03/15 00:43:15;;;;;;;7.03;2.47;;;5.80;99.90;;;4.19;88.01;100682.63;4946354;28;103382;-41
2021/03/15 00:45:43;;;;;;;8.15;2.47;;;5.80;99.90;;;4.17;88.65;100681.97;4946199;28;102748;-41
2021/03/15 00:48:11;;;;;;;6.50;2.70;;;5.80;99.90;;;4.17;88.45;100671.19;4946592;28;102449;-41
2021/03/15 00:50:41;;;;;;;6.43;2.75;;;5.80;99.90;;;4.17;89.28;100680.09;4930331;28;103536;-40
2021/03/15 00:53:15;;;;;;;14.55;2.95;;;5.80;99.90;;;4.17;89.31;100673.88;4947053;28;102521;-40
2021/03/15 00:55:43;;;;;;;6.32;2.88;;;5.80;99.90;;;4.11;89.28;100669.16;4930257;28;102787;-40
2021/03/15 00:58:11;;;;;;;8.85;3.28;;;5.80;99.90;;;4.07;89.05;100663.28;4928007;28;103404;-41
2021/03/15 01:00:42;;;;;;;7.22;2.50;;;5.80;99.90;;;4.02;90.33;100668.34;4929986;28;103681;-40
2021/03/15 01:03:09;;;;;;;7.93;3.13;;;5.70;99.90;;;4.02;90.49;100658.38;4946352;28;104161;-40
2021/03/15 01:05:46;;;;;;;9.48;3.42;;;5.70;99.90;;;3.98;90.52;100656.22;4929710;28;102779;-40
2021/03/15 01:08:30;;;;;;;8.82;2.92;;;5.70;99.90;;;3.95;91.08;100646.59;4948394;28;102827;-41
2021/03/15 01:11:00;;;;;;;11.20;3.05;;;5.60;99.90;;;3.99;90.36;100634.44;4930966;28;102808;-41
2021/03/15 01:13:27;;;;;;;5.93;2.92;;;5.70;99.90;;;3.96;91.53;100633.94;4929393;28;102574;-40
2021/03/15 01:15:55;;;;;;;;;;;5.60;99.90;;;3.95;91.40;100641.19;4930820;28;102357;-41
2021/03/15 01:18:23;;;;;;;8.82;3.25;;;5.60;99.90;;;3.96;91.81;100636.63;4914249;28;103189;-41
2021/03/15 01:20:51;;;;;;;5.30;2.78;;;5.60;99.90;;;4.03;91.50;100638.47;4913726;28;102544;-41
2021/03/15 01:23:20;;;;;;;6.50;2.90;;;5.60;99.90;;;4.02;91.07;100638.66;4945612;28;102990;-40
2021/03/15 01:25:48;;;;;;;8.48;2.67;;;5.60;99.90;;;4.09;90.98;100634.22;4929668;28;103553;-40
2021/03/15 01:28:18;;;;;;;7.07;2.95;;;5.70;99.90;;;4.06;90.45;100629.19;4929642;28;102457;-41
2021/03/15 01:30:49;;;;;;;8.02;3.05;;;5.70;99.90;;;4.09;90.00;100619.88;4945450;28;104579;-41
2021/03/15 01:33:18;;;;;;;10.07;3.00;;;5.70;99.90;;;4.01;90.38;100624.31;4928794;28;105281;-41
2021/03/15 01:35:45;;;;;;;8.10;2.78;;;5.70;99.90;;;4.06;90.42;100617.53;4945913;28;102643;-41
2021/03/15 01:38:13;;;;;;;7.97;3.22;;;5.70;99.90;;;4.05;91.22;100611.31;4929071;28;104720;-40
2021/03/15 01:40:42;;;;;;;11.18;3.40;;;5.70;99.90;;;4.07;91.18;100603.00;4929309;28;104466;-40
2021/03/15 01:43:11;;;;;;;7.72;2.88;;;5.70;99.90;;;4.02;91.01;100607.09;4913627;28;102336;-41
2021/03/15 01:45:40;;;;;;;10.18;3.15;;;5.60;99.90;;;4.03;90.58;100597.97;4944998;28;104543;-40
2021/03/15 01:50:50;;;;;;;;;;;5.60;99.90;;;4.05;92.07;100596.94;4948664;28;102340;-41
2021/03/15 01:53:20;;;;;;;11.13;3.78;;;5.60;99.90;;;4.04;91.73;100588.03;4929086;28;104471;-41
2021/03/15 01:55:49;;;;;;;8.32;3.45;;;5.60;99.90;;;4.06;91.09;100580.59;4913153;28;102825;-41
2021/03/15 01:58:18;;;;;;;8.65;3.42;;;5.70;99.90;;;4.06;91.47;100572.50;4928128;28;103170;-40
2021/03/15 02:00:46;;;;;;;8.73;3.88;;;5.70;99.90;;;4.07;91.21;100568.78;4929137;28;102522;-40
2021/03/15 02:03:19;;;;;;;8.10;3.45;;;5.70;99.90;;;4.08;91.44;100559.66;4930097;28;103408;-40
2021/03/15 02:05:47;;;;;;;10.20;2.97;;;5.70;99.90;;;4.05;91.67;100556.44;4912895;28;103460;-41
2021/03/15 02:08:15;;;;;;;;;;;5.70;99.90;;;4.03;91.84;100564.75;4970280;22;104797;-38
2021/03/15 02:10:43;;;;;;;9.13;3.00;;;5.70;99.90;;;3.99;91.08;100556.16;4924991;28;102507;-38
2021/03/15 02:13:31;;;;;;;11.00;3.38;;;5.60;99.90;;;3.99;92.01;100550.75;4908654;28;105418;-38
2021/03/15 02:16:20;;;;;;;8.48;3.30;;;5.60;99.90;;;4.01;92.44;100539.78;4925744;28;102558;-38
2021/03/15 02:19:13;;;;;;;10.85;3.20;;;5.60;99.90;;;4.00;92.31;100536.22;4941497;28;102461;-39
2021/03/15 02:22:05;;;;;;;9.00;4.03;;;5.60;99.90;;;3.99;92.13;100539.13;4925821;28;104719;-39
2021/03/15 02:25:01;;;;;;;9.23;3.40;;;5.60;99.90;;;3.99;91.53;100526.44;4940720;28;104677;-39
2021/03/15 02:27:57;;;;;;;8.15;3.40;;;5.60;99.90;;;3.97;92.04;100528.47;4925276;28;103854;-39
2021/03/15 02:30:58;;;;;;;8.57;3.55;;;5.60;99.90;;;3.96;92.33;100521.41;4941484;28;103273;-39
2021/03/15 02:33:53;;;;;;;8.57;3.00;;;5.60;99.90;;;3.91;92.04;100522.94;4924702;28;103767;-39
2021/03/15 02:36:25;;;;;;;6.43;2.83;;;5.60;99.90;;;3.89;92.48;100521.25;4924609;28;104284;-38
2021/03/15 02:38:53;;;;;;;9.20;3.30;;;5.60;99.90;;;3.94;92.86;100525.28;4909334;28;102557;-38
2021/03/15 02:41:23;;;;;;;7.18;4.20;;;5.60;99.90;;;3.90;92.76;100527.50;4893557;28;103494;-39
2021/03/15 02:44:00;;;;;;;7.10;2.97;;;5.50;99.90;;;3.84;93.12;100515.56;4924666;28;102905;-38
2021/03/15 02:46:32;;;;;;;6.40;3.05;;;5.50;99.90;;;3.85;93.04;100521.81;4925884;28;104391;-38
2021/03/15 02:49:09;;;;;;;9.73;3.25;;;5.50;99.90;;;3.79;93.10;100509.00;4925031;28;102696;-38
2021/03/15 02:51:41;;;;;;;6.15;2.90;;;5.50;99.90;;;3.82;93.36;100519.44;4909493;28;106365;-39
2021/03/15 02:54:13;;;;;;;7.25;2.80;;;5.50;99.90;;;3.79;93.48;100511.69;4925546;28;102780;-38
2021/03/15 02:56:53;;;;;;;6.03;2.85;;;5.50;99.90;;;3.76;93.37;100518.31;4923747;28;102376;-38
2021/03/15 02:59:22;;;;;;;8.95;3.15;;;5.50;99.90;;;3.78;94.03;100513.56;4940231;28;104421;-39
2021/03/15 03:01:53;;;;;;;7.88;2.58;;;5.50;99.90;;;3.77;93.79;100511.03;4924841;28;103530;-39
2021/03/15 03:04:22;;;;;;;4.68;2.70;;;5.40;99.90;;;3.78;93.49;100513.56;4924960;28;103515;-38
2021/03/15 03:06:53;;;;;;;5.63;2.33;;;5.40;99.90;;;3.78;93.85;100508.16;4924766;28;104774;-38
2021/03/15 03:09:23;;;;;;;6.47;2.58;;;5.40;99.90;;;3.78;93.70;100501.91;4924202;28;103262;-39
2021/03/15 03:11:53;;;;;;;5.65;2.58;;;5.50;99.90;;;3.77;93.90;100506.50;4940804;28;104098;-38
2021/03/15 03:14:27;;;;;;;4.90;2.45;;;5.40;99.90;;;3.76;94.15;100510.19;4924270;28;103461;-39
2021/03/15 03:17:00;;;;;;;9.05;2.80;;;5.40;99.90;;;3.79;93.96;100514.38;4924597;28;105759;-38
2021/03/15 03:19:32;;;;;;;5.97;2.38;;;5.50;99.90;;;3.79;94.12;100501.75;4924000;28;102656;-38
2021/03/15 03:22:03;;;;;;;5.75;2.78;;;5.50;99.90;;;3.84;94.00;100512.84;4941072;28;102321;-38
2021/03/15 03:24:34;;;;;;;6.35;2.80;;;5.50;99.90;;;3.82;92.92;100512.19;4940071;28;105162;-39
2021/03/15 03:27:05;;;;;;;5.43;2.78;;;5.50;99.90;;;3.81;93.88;100523.16;4940645;28;103371;-39
2021/03/15 03:29:35;;;;;;;4.60;2.20;;;5.50;99.90;;;3.78;93.43;100516.25;4940315;28;104574;-39
2021/03/15 03:32:04;;;;;;;5.88;3.08;;;5.50;99.90;;;3.79;93.66;100514.38;4940605;28;102453;-39
2021/03/15 03:34:32;;;;;;;5.65;2.50;;;5.50;99.90;;;3.78;93.62;100515.41;4956054;28;103503;-38
2021/03/15 03:36:59;;;;;;;6.57;3.00;;;5.40;99.90;;;3.76;93.54;100515.59;4876887;28;104500;-39
2021/03/15 03:39:26;;;;;;;5.25;2.47;;;5.40;99.90;;;3.77;93.52;100519.13;4908750;28;102739;-39
2021/03/15 03:41:54;;;;;;;3.70;2.22;;;5.40;99.90;;;3.79;94.29;100515.25;4892463;28;102485;-39
2021/03/15 03:44:22;;;;;;;5.85;2.20;;;5.40;99.90;;;3.80;94.74;100522.31;4892013;28;102691;-39
2021/03/15 03:46:49;;;;;;;5.63;2.92;;;5.40;99.90;;;3.79;93.63;100514.38;4908866;28;102360;-39
2021/03/15 03:49:17;;;;;;;6.90;3.05;;;5.50;99.90;;;3.78;94.09;100512.72;4908239;28;102543;-38
2021/03/15 03:52:00;;;;;;;6.15;3.17;;;5.40;99.90;;;3.82;94.77;100524.81;4924469;28;104679;-38
2021/03/15 03:54:36;;;;;;;4.85;2.50;;;5.40;99.90;;;3.80;93.91;100519.63;4941365;28;104449;-38
2021/03/15 03:57:11;;;;;;;5.47;2.53;;;5.40;99.90;;;3.80;94.61;100526.88;4938560;28;103100;-38
2021/03/15 03:59:46;;;;;;;5.80;2.90;;;5.50;99.90;;;3.80;94.48;100521.47;4940193;28;102742;-39
2021/03/15 04:02:22;;;;;;;7.25;3.25;;;5.50;99.90;;;3.78;94.16;100527.06;4893028;28;105631;-39
2021/03/15 04:05:00;;;;;;;5.20;3.03;;;5.50;99.90;;;3.79;94.20;100535.97;4939800;28;102625;-38
2021/03/15 04:07:32;;;;;;;6.00;3.38;;;5.40;99.90;;;3.78;94.42;100535.16;4940423;28;102450;-39
2021/03/15 04:10:12;;;;;;;6.82;3.35;;;5.50;99.90;;;3.83;94.57;100537.31;4920159;28;102637;-39
2021/03/15 04:12:51;;;;;;;7.10;3.53;;;5.50;99.90;;;3.83;94.14;100543.56;4920445;28;102377;-39
2021/03/15 04:15:18;;;;;;;8.45;4.13;;;5.50;99.90;;;3.86;94.75;100547.78;4921471;28;103470;-38
2021/03/15 04:17:50;;;;;;;9.38;4.10;;;5.50;99.90;;;3.83;95.13;100551.66;4888934;28;102597;-38
2021/03/15 04:20:28;;;;;;;8.13;3.70;;;5.50;99.90;;;3.84;95.20;100547.94;4920910;28;102985;-38
2021/03/15 04:22:59;;;;;;;8.45;4.10;;;5.50;99.90;;;3.81;94.44;100548.28;4920671;28;103314;-39
2021/03/15 04:25:32;;;;;;;7.63;3.58;;;5.50;99.90;;;3.83;95.37;100558.91;4904225;28;102582;-38
2021/03/15 04:28:04;;;;;;;6.30;3.42;;;5.50;99.90;;;3.87;94.78;100571.06;4922192;28;102258;-39
2021/03/15 04:30:35;;;;;;;7.65;3.90;;;5.50;99.90;;;3.82;94.73;100568.88;4921845;28;102647;-39
2021/03/15 04:33:05;;;;;;;6.75;3.80;;;5.50;99.90;;;3.81;93.91;100569.03;4908484;28;102334;-39
2021/03/15 04:35:35;;;;;;;8.50;4.00;;;5.50;99.90;;;3.84;94.24;100574.06;4907134;28;102452;-38
2021/03/15 04:38:07;;;;;;;6.80;3.63;;;5.50;99.90;;;3.81;94.38;100577.97;4923786;28;103600;-39
2021/03/15 04:40:38;;;;;;;7.32;3.85;;;5.40;99.90;;;3.81;94.45;100577.13;4908398;28;102384;-39
2021/03/15 04:43:08;;;;;;;6.78;3.58;;;5.50;99.90;;;3.78;94.09;100582.88;4907922;28;102471;-39
2021/03/15 04:45:43;;;;;;;7.65;3.70;;;5.40;99.90;;;3.78;93.95;100586.44;4923265;28;102612;-38
2021/03/15 04:48:19;;;;;;;8.18;3.85;;;5.40;99.90;;;3.81;94.25;100582.53;4923401;28;104730;-38
2021/03/15 04:50:54;;;;;;;7.22;3.80;;;5.50;99.90;;;3.82;93.60;100587.75;4891817;28;102584;-38
2021/03/15 04:53:22;;;;;;;7.80;3.60;;;5.40;99.90;;;3.76;93.87;100593.84;4924161;28;104165;-38
2021/03/15 04:55:49;;;;;;;;;;;5.40;99.90;;;3.75;94.14;100600.28;4924975;28;102595;-38
2021/03/15 04:58:18;;;;;;;8.82;3.58;;;5.40;99.90;;;3.78;93.50;100594.53;4921672;28;105779;-39
2021/03/15 05:00:52;;;;;;;8.88;3.53;;;5.40;99.90;;;3.76;93.43;100595.69;4923282;28;102697;-39
2021/03/15 05:03:22;;;;;;;8.20;3.70;;;5.40;99.90;;;3.73;93.92;100607.69;4922671;28;103487;-38
2021/03/15 05:05:55;;;;;;;6.05;3.45;;;5.40;99.90;;;3.74;93.71;100599.41;4891782;28;102656;-39
2021/03/15 05:08:29;;;;;;;8.18;4.38;;;5.40;99.90;;;3.76;93.69;100601.09;4926592;28;103435;-39
2021/03/15 05:11:01;;;;;;;8.52;4.03;;;5.40;99.90;;;3.71;92.99;100607.00;4946218;28;102857;-38
2021/03/15 05:13:34;;;;;;;7.00;3.63;;;5.40;99.90;;;3.66;91.97;100612.94;4945293;28;103425;-38
2021/03/15 05:16:04;;;;;;;7.22;3.90;;;5.30;99.90;;;3.67;92.29;100613.75;4946074;28;102876;-38
2021/03/15 05:18:34;;;;;;;11.90;5.43;;;5.30;99.90;;;3.63;92.48;100628.63;4963446;28;104334;-39
2021/03/15 05:21:06;;;;;;;9.98;4.95;;;5.30;99.90;;;3.55;92.63;100622.22;4945441;28;102587;-39
2021/03/15 05:23:39;;;;;;;13.52;6.22;;;5.30;99.90;;;3.55;92.37;100630.31;4962690;28;102408;-38
2021/03/15 05:26:09;;;;;;;13.85;6.15;;;5.20;99.90;;;3.54;92.94;100636.72;4963303;28;102371;-38
2021/03/15 05:28:40;;;;;;;16.75;6.63;;;5.20;99.90;;;3.52;93.14;100638.75;4945431;28;105341;-39
2021/03/15 05:31:11;;;;;;;14.30;6.57;;;5.20;99.90;;;3.52;92.93;100633.38;4945925;28;104493;-39
2021/03/15 05:33:42;;;;;;;13.98;6.80;;;5.20;99.90;;;3.47;93.25;100626.78;4944699;28;104521;-38
2021/03/15 05:36:13;;;;;;;10.68;5.13;;;5.20;99.90;;;3.47;93.65;100646.53;4945335;28;102503;-38
2021/03/15 05:38:41;;;;;;;11.30;4.30;;;5.20;99.90;;;3.48;93.14;100645.53;4962538;28;103519;-39
2021/03/15 05:41:11;;;;;;;8.23;3.80;;;5.20;99.90;;;3.44;92.72;100641.44;4929496;28;103844;-39
2021/03/15 05:43:49;;;;;;;5.55;2.70;;;5.10;99.90;;;3.43;93.38;100647.84;4911915;28;102422;-38
2021/03/15 05:46:46;;;;;;;5.28;2.58;;;5.10;99.90;;;3.48;93.18;100653.59;4930897;28;102242;-38
2021/03/15 05:49:34;;;;;;;7.00;2.53;;;5.10;99.90;;;3.47;93.07;100651.06;4945144;28;104226;-39
2021/03/15 05:52:15;;;;;;;5.85;2.90;;;5.10;99.90;;;3.53;93.01;100663.88;4962859;28;103665;-39
2021/03/15 05:55:12;;;;;;;6.13;2.45;;;5.20;99.90;;;3.49;92.38;100660.69;4962247;28;103357;-39
2021/03/15 05:58:08;;;;;;;6.15;3.08;;;5.10;99.90;;;3.50;92.72;100666.91;4947114;28;102486;-38
2021/03/15 06:01:02;;;;;;;5.60;3.00;;;5.10;99.90;;;3.52;93.07;100673.84;4944843;28;103365;-39
2021/03/15 06:04:01;;;;;;;6.15;3.05;;;5.20;99.90;;;3.55;92.56;100678.88;4961891;28;102482;-38
2021/03/15 06:06:38;;;;;;;7.23;3.57;;;5.20;99.90;;;3.52;92.32;100675.69;4945116;28;102473;-39
2021/03/15 06:09:13;;;;;;;5.40;2.65;;;5.20;99.90;;;3.52;92.23;100679.22;4960480;28;102382;-39
2021/03/15 06:11:50;;;;;;;7.93;3.30;;;5.20;99.90;;;3.52;93.01;100687.31;4944789;28;102369;-39
2021/03/15 06:14:18;;;;;;;5.20;2.97;;;5.20;99.90;;;3.58;92.66;100697.44;4961739;28;103367;-38
2021/03/15 06:16:45;;;;;;;6.63;3.28;;;5.20;99.90;;;3.55;92.71;100700.47;4961990;28;103461;-39
2021/03/15 06:19:13;;;;;;;6.97;2.92;;;5.20;99.90;;;3.58;91.90;100705.53;4945051;28;102593;-39
2021/03/15 06:21:42;;;;;;;5.70;3.00;;;5.20;99.90;;;3.61;92.33;100707.06;4929188;28;102314;-39
2021/03/15 06:24:11;;;;;;;8.15;3.00;;;5.20;99.90;;;3.63;92.42;100704.16;4961605;28;103310;-38
2021/03/15 06:26:40;;;;;;;7.80;2.95;;;5.30;99.90;;;3.60;92.36;100710.75;4944176;28;103332;-38
2021/03/15 06:29:07;;;;;;;6.32;2.67;;;5.20;99.90;;;3.64;91.91;100712.09;4962201;28;103813;-38
2021/03/15 06:31:38;;;;;;;6.50;3.10;;;5.30;99.90;;;3.62;92.66;100708.75;4944723;28;102491;-39
2021/03/15 06:34:12;;;;;;;6.43;2.60;;;5.30;99.90;;;3.63;92.54;100717.66;4944773;28;103372;-38
2021/03/15 06:36:41;;;;;;;6.03;2.80;;;5.30;99.90;;;3.62;91.91;100721.38;4962270;28;102298;-39
2021/03/15 06:39:11;;;;;;;7.43;2.72;;;5.30;99.90;;;3.56;92.08;100712.94;4961884;28;102673;-38
2021/03/15 06:41:43;;;;;;;7.10;3.53;;;5.20;99.90;;;3.65;92.67;100726.41;4962204;28;103289;-38
2021/03/15 06:44:11;;;;;;;7.80;3.25;;;5.30;99.90;;;3.71;93.07;100723.91;4961663;28;102609;-39
2021/03/15 06:46:41;;;;;;;;;;;5.30;99.90;;;3.79;92.71;100741.94;4963268;28;104499;-38
2021/03/15 06:49:09;;;;;;;7.28;3.15;;;5.40;99.90;;;3.85;93.38;100740.44;4944704;28;102385;-38
2021/03/15 06:51:37;;;;;;;8.05;3.72;;;5.40;99.90;;;3.87;93.42;100746.50;4961916;28;103455;-38
2021/03/15 06:54:24;;;;;;;10.27;3.57;;;5.50;99.90;;;3.84;92.06;100741.41;4943685;28;102481;-38
2021/03/15 06:57:20;;;;;;;7.65;3.55;;;5.50;99.90;;;3.79;92.50;100750.03;4960192;28;102478;-38
2021/03/15 06:59:58;;;;;;;6.47;3.50;;;5.40;99.90;;;3.76;92.49;100760.31;4961301;28;104464;-39
2021/03/15 07:02:30;;;;;;;7.72;3.80;;;5.40;99.90;;;3.79;92.92;100765.38;4944459;28;104512;-38
2021/03/15 07:05:15;;;;;;;8.30;3.70;;;5.40;99.90;;;3.87;92.89;100771.63;4961094;28;102443;-38
2021/03/15 07:07:54;;;;;;;7.95;4.35;;;5.40;99.90;;;3.96;93.57;100774.31;4961909;28;102246;-39
2021/03/15 07:10:28;;;;;;;9.13;4.00;;;5.50;99.90;;;3.99;92.94;100785.63;4960877;28;102373;-39
2021/03/15 07:13:16;;;;;;;8.52;3.92;;;5.60;99.90;;;3.99;93.00;100782.91;4928354;28;103399;-39
2021/03/15 07:15:48;;;;;;;9.90;4.65;;;5.60;99.90;;;4.02;92.34;100797.94;4960733;28;103341;-38
2021/03/15 07:18:20;;;;;;;7.28;3.90;;;5.60;99.90;;;4.06;92.57;100784.94;4912976;28;103413;-39
2021/03/15 07:20:58;;;;;;;9.05;4.30;;;5.60;99.90;;;4.16;92.96;100791.00;4961666;28;102682;-39
2021/03/15 07:23:48;;;;;;;9.70;4.27;;;5.70;99.90;;;4.30;92.00;100792.16;4960773;28;103439;-38
2021/03/15 07:26:20;;;;;;;8.82;3.92;;;5.80;99.90;;;4.32;91.77;100792.84;4961490;28;102238;-39
2021/03/15 07:28:49;;;;;;;9.68;3.95;;;5.80;99.90;;;4.35;91.57;100797.88;4961656;28;102611;-39
2021/03/15 07:31:30;;;;;;;8.95;4.47;;;5.90;99.90;;;4.41;91.91;100802.59;4943816;28;105237;-39
2021/03/15 07:33:58;;;;;;;9.27;3.90;;;5.90;99.90;;;4.52;91.30;100811.38;4961205;28;102411;-38
2021/03/15 07:36:29;;;;;;;11.43;4.28;;;6.00;99.90;;;4.59;90.24;100812.34;4961502;28;102587;-38
2021/03/15 07:38:59;;;;;;;9.82;4.00;;;6.10;99.90;;;4.71;89.88;100810.97;4961196;28;102391;-39
2021/03/15 07:41:46;;;;;;;7.75;3.58;;;6.20;99.90;;;4.79;89.48;100814.66;4931861;28;102547;-38
2021/03/15 07:44:28;;;;;;;10.30;3.83;;;6.30;99.90;;;4.83;88.88;100822.22;4943474;28;102403;-38
2021/03/15 07:47:00;;;;;;;7.63;3.65;;;6.30;99.90;;;4.94;89.12;100831.00;4961390;28;102732;-39
2021/03/15 07:49:30;;;;;;;8.23;4.15;;;6.40;99.90;;;5.02;89.23;100834.50;4944342;28;102659;-38
2021/03/15 07:52:02;;;;;;;9.38;3.85;;;6.50;99.90;;;5.16;89.36;100845.59;4961384;28;102273;-39
2021/03/15 07:54:36;;;;;;;9.35;3.88;;;6.60;99.90;;;5.21;88.14;100845.91;4960631;28;103417;-38
2021/03/15 07:57:24;;;;;;;8.80;4.18;;;6.70;99.90;;;5.33;87.78;100843.66;4925840;28;105399;-38
2021/03/15 07:59:57;;;;;;;9.05;3.70;;;6.80;99.90;;;5.39;86.60;100850.22;4960685;28;103391;-39
2021/03/15 08:02:29;;;;;;;9.40;3.90;;;6.80;99.90;;;5.41;85.00;100857.13;4961580;28;103685;-39
2021/03/15 08:04:59;;;;;;;8.90;3.50;;;6.90;99.90;;;5.40;85.44;100852.75;4960365;28;103405;-38
2021/03/15 08:07:30;;;;;;;6.40;3.38;;;6.90;99.90;;;5.43;85.08;100855.09;4963962;28;102584;-39
2021/03/15 08:10:00;;;;;;;8.48;3.90;;;6.90;99.90;;;5.31;84.00;100862.78;5010541;22;103501;-40
2021/03/15 08:12:34;;;;;;;8.93;3.28;;;6.90;99.90;;;5.34;85.05;100869.69;4944942;28;102625;-41
2021/03/15 08:15:13;;;;;;;9.68;3.85;;;6.90;99.90;;;5.31;85.26;100868.19;4944386;28;102260;-41
2021/03/15 08:17:45;;;;;;;9.45;3.42;;;6.90;99.90;;;5.32;85.16;100880.72;4945565;28;102206;-41
2021/03/15 08:20:16;;;;;;;9.23;3.88;;;6.90;99.90;;;5.26;84.40;100877.84;4945408;28;103524;-41
2021/03/15 08:22:51;;;;;;;8.90;4.35;;;6.80;99.90;;;5.31;84.14;100887.13;4960301;28;102441;-41
2021/03/15 08:25:21;;;;;;;8.27;3.80;;;6.80;99.90;;;5.40;84.36;100884.38;4942826;28;104133;-41
2021/03/15 08:27:52;;;;;;;7.30;3.80;;;6.90;99.90;;;5.35;84.52;100893.00;4944581;28;102509;-41
2021/03/15 08:30:28;;;;;;;7.75;3.97;;;6.90;99.90;;;5.37;84.59;100900.97;4944822;28;103409;-41
2021/03/15 08:32:58;;;;;;;8.07;4.30;;;6.90;99.90;;;5.46;84.19;100902.59;4944681;28;103560;-41
2021/03/15 08:35:27;;;;;;;9.07;4.00;;;6.90;99.90;;;5.47;82.58;100910.56;4944029;28;102426;-41
2021/03/15 08:38:05;;;;;;;7.35;4.00;;;7.00;99.90;;;5.53;83.43;100909.00;4944463;28;102592;-40
2021/03/15 08:40:43;;;;;;;7.57;3.90;;;7.00;99.90;;;5.56;82.62;100911.34;4944568;28;102541;-41
2021/03/15 08:43:21;;;;;;;5.03;3.13;;;7.10;99.90;;;5.58;81.91;100914.75;4944747;28;102496;-41
2021/03/15 08:45:58;;;;;;;7.40;3.77;;;7.10;99.90;;;5.56;81.58;100914.03;4927481;28;102446;-41
2021/03/15 08:48:36;;;;;;;6.93;3.47;;;7.10;99.90;;;5.64;81.15;100913.16;4944684;28;102547;-41
2021/03/15 08:51:35;;;;;;;8.32;3.90;;;7.10;99.90;;;5.84;81.59;100920.84;4945038;28;102551;-41
2021/03/15 08:54:08;;;;;;;13.20;3.88;;;7.20;99.90;;;6.17;80.95;100916.09;4942300;28;103547;-41
2021/03/15 08:56:39;;;;;;;9.23;3.95;;;7.50;99.90;;;6.45;80.34;100909.22;4941317;28;102478;-41
2021/03/15 08:59:09;;;;;;;7.82;3.67;;;7.70;99.90;;;6.50;78.04;100909.56;4944282;28;103362;-41
2021/03/15 09:01:49;;;;;;;9.77;4.00;;;7.80;99.90;;;6.47;77.84;100912.59;4944412;28;103081;-41
2021/03/15 09:07:35;;;;;;;7.90;2.58;;;7.90;99.90;;;6.19;77.15;100905.91;4928002;28;105212;-41
2021/03/15 09:10:22;;;;;;;8.43;3.22;;;7.80;99.90;;;6.07;78.02;100907.34;4954914;28;102649;-41
2021/03/15 09:13:20;;;;;;;9.93;4.15;;;7.70;99.90;;;6.10;80.45;100903.44;4963437;28;103641;-41
2021/03/15 09:15:59;;;;;;;7.50;3.58;;;7.60;99.90;;;5.97;80.17;100912.97;4963324;28;102270;-41
2021/03/15 09:18:48;;;;;;;6.35;3.67;;;7.50;99.90;;;5.90;80.00;100925.53;4944590;28;104170;-41
2021/03/15 09:21:26;;;;;;;9.55;4.05;;;7.50;99.90;;;5.80;80.50;100923.06;4963167;28;102654;-41
2021/03/15 09:23:59;;;;;;;8.07;2.90;;;7.40;99.90;;;5.65;80.43;100922.16;4962170;28;104555;-41
2021/03/15 09:26:44;;;;;;;9.10;3.05;;;7.30;99.90;;;5.66;80.60;100923.84;4948313;28;102432;-41
2021/03/15 09:29:12;;;;;;;7.63;2.97;;;7.20;99.90;;;5.59;80.78;100927.25;4963120;28;104382;-41
2021/03/15 09:31:39;;;;;;;7.75;3.05;;;7.20;99.90;;;5.59;81.08;100931.81;4946111;28;102572;-41
2021/03/15 09:34:19;;;;;;;8.60;3.60;;;7.20;99.90;;;5.67;82.21;100931.75;4962130;28;103209;-40
2021/03/15 09:36:48;;;;;;;10.30;3.97;;;7.20;99.90;;;5.92;82.66;100938.91;4963323;28;102605;-41
2021/03/15 09:39:18;;;;;;;8.13;3.40;;;7.30;99.90;;;6.02;81.86;100937.69;4945579;28;104376;-41
2021/03/15 09:41:48;;;;;;;9.63;3.60;;;7.40;99.90;;;6.22;82.57;100936.38;4946047;28;103569;-40
2021/03/15 09:44:24;;;;;;;6.65;3.35;;;7.60;99.90;;;6.40;80.27;100936.91;4944895;28;103246;-41
2021/03/15 09:46:54;;;;;;;10.60;3.60;;;7.70;99.90;;;6.54;79.13;100937.13;4944797;28;103398;-41
2021/03/15 09:49:43;;;;;;;8.52;3.30;;;7.90;99.90;;;6.81;77.02;100927.56;4962656;28;102584;-41
2021/03/15 09:52:21;;;;;;;8.30;3.00;;;8.10;99.90;;;7.05;76.27;100929.16;4946456;28;102332;-41
2021/03/15 09:54:58;;;;;;;4.60;2.42;;;8.30;99.90;;;7.22;75.18;100918.13;4962386;28;103142;-41
2021/03/15 09:57:26;;;;;;;10.77;2.97;;;8.50;99.90;;;7.31;74.06;100927.84;4961511;28;102846;-41
2021/03/15 10:00:17;;;;;;;6.28;2.70;;;8.60;99.90;;;7.65;73.90;100921.97;4947043;28;103693;-41
2021/03/15 10:02:54;;;;;;;9.13;2.78;;;8.90;99.90;;;7.99;71.69;100923.22;4962968;28;102400;-41
2021/03/15 10:05:32;;;;;;;4.82;1.98;;;9.10;99.90;;;7.93;69.97;100924.81;4961615;28;102329;-41
2021/03/15 10:08:11;;;;;;;7.63;2.00;;;9.20;99.90;;;7.59;69.80;100934.47;4946922;28;102541;-41
2021/03/15 10:10:50;;;;;;;5.35;2.67;;;9.10;99.90;;;7.56;70.55;100932.94;4962242;28;104378;-41
2021/03/15 10:13:26;;;;;;;8.85;1.98;;;9.10;99.90;;;7.50;69.16;100933.72;4961975;28;102872;-41
2021/03/15 10:16:13;;;;;;;6.35;1.80;;;9.00;99.90;;;7.29;69.25;100942.59;4921004;28;102405;-41
2021/03/15 10:19:01;;;;;;;5.13;1.63;;;8.80;99.90;;;6.93;70.04;100956.91;4961277;28;102768;-41
2021/03/15 10:21:31;;;;;;;5.15;1.77;;;8.60;99.90;;;6.67;72.74;100960.88;4945295;28;102443;-41
2021/03/15 10:24:06;;;;;;;5.43;1.60;;;8.40;99.90;;;6.53;73.84;100966.09;4961138;28;103194;-41
2021/03/15 10:26:35;;;;;;;6.28;1.98;;;8.20;99.90;;;6.64;77.48;100967.53;4962335;28;102451;-41
2021/03/15 10:29:04;;;;;;;7.68;1.20;;;8.10;99.90;;;6.74;73.19;100972.69;4961956;28;102610;-41
2021/03/15 10:31:40;;;;;;;4.70;1.20;;;8.20;99.90;;;6.76;74.32;100976.91;4929523;28;108204;-41
2021/03/15 10:34:09;;;;;;;5.22;1.20;;;8.20;99.90;;;6.76;73.67;100982.34;4944671;28;102643;-41
2021/03/15 10:36:52;;;;;;;3.83;0.98;;;8.20;99.90;;;6.85;73.43;100979.53;4946620;28;102467;-41
2021/03/15 10:39:29;;;;;;;3.40;1.08;;;8.30;99.90;;;6.75;71.86;100982.50;4947201;28;102673;-41
2021/03/15 10:42:00;;;;;;;4.53;1.08;;;8.30;99.90;;;6.81;71.38;100983.66;4962045;28;102371;-41
2021/03/15 10:44:35;;;;;;;2.03;0.85;;;8.30;99.90;;;7.04;73.44;100976.31;4961375;28;102780;-41
2021/03/15 10:47:08;;;;;;;7.13;1.30;;;8.40;99.90;;;7.03;71.08;100979.22;4946175;28;103655;-41
2021/03/15 10:49:42;;;;;;;4.90;0.93;;;8.50;99.90;;;7.03;70.36;100968.38;4945448;28;102598;-40
2021/03/15 10:52:38;;;;;;;3.03;1.00;;;8.50;99.90;;;7.19;71.42;100975.47;4945937;28;102627;-41
2021/03/15 10:55:32;;;;;;;5.57;1.13;;;8.60;99.90;;;7.46;72.55;100967.72;4960040;28;103322;-41